18ème Rallye National Terre de Langres
Championnat de France des Rallyes sur Terre
1 5 TRON Noel/OBRECHT Justine Citroën DS3 WRC A 8W 8:08,7 88km/h 1
2 4 MAURIN Julien/URAL Olivier Citroën DS3 WRC A 8W 8:11,0 +00:02,3 +00:02,3 1
3 2 DURBEC Thibault/RENUCCI Jacques-Julien Citroën DS3 WRC A 8W 8:17,6 +00:08,9 +00:06,6 1
4 3 CUOQ Jean-Marie/GRANDEMANGE Marielle Citroën C4 WRC FA 8W 8:20,1 +00:11,4 +00:02,5 1
5 9 AMOURETTE Marc/MARIE Gwenola Citroën DS3 R5 R 5 8:24,4 +00:15,7 +00:04,3
6 7 FERAUD Cyrille/DUCHEMIN Aymeric Citroën C4 WRC FA 8W 8:31,7 +00:23,0 +00:07,3 1
7 8 MORDACQ Arnaud/RATIER Marie-Noelle Mitsubishi Lancer Evo9 FN 4 8:42,9 +00:34,2 +00:11,2 1
8 1 BERFA Jordan/AUGUSTIN Damien HUYNDAI i20 R5 R 5 8:48,1 +00:39,4 +00:05,2 1
9 6 BAUD Lionel/SERRE Pascal Ford Focus WRC FA 8W 9:08,8 +01:00,1 +00:20,7 1
10 14 CECCHI Philippe/LETOURNEAU Lara Citroën DS3 R5 R 5 9:24,7 +01:16,0 +00:15,9
11 19 CHAYNES Gary/TRIBOUT Christian Mitsubishi Lancer Evo6 FA 8 9:30,3 +01:21,6 +00:05,6 1
12 16 PELUTTIERO Thibaud/REICHENECKER Josh Mitsubishi Lancer EvoX R 4 9:34,6 +01:25,9 +00:04,3 1
13 25 MOREL Jean-Luc/GIDEL Philippe Subaru Impreza WRX FN 4 9:35,2 +01:26,5 +00:00,6
14 18 SALIN Daniel/SALIN Brigitte Subaru Impreza WRX R 4 9:41,9 +01:33,2 +00:06,7
15 30 ASTIER Loïc/DECLERCK Loïc Citroën DS3 R3 R 3 9:46,1 +01:37,4 +00:04,2 1 2
16 12 BESSON Jean-Pascal/ROISSAC Patrice Skoda Fabia R5 R 5 9:47,8 +01:39,1 +00:01,7 1
17 23 BENIER Thomas/PRASSE Cédric Subaru Impreza WRX N 4 9:48,8 +01:40,1 +00:01,0 1
18 20 GAIDOZ Hervé/RICHARD François Subaru Impreza WRX FA 8 9:55,0 +01:46,3 +00:06,2 1
19 26 DELOY David/OGIER Cédric Mitsubishi Lancer EvoX N 4 9:55,3 +01:46,6 +00:00,3
20 45 FOURMAUX Adrien/FOURMAUX Maxime Ford Fiesta R2J R 2 10:05,0 +01:56,3 +00:09,7 4
21 31 COLNEY Thierry/FORTMANN Patrick Citroën DS3 R3 R 3 10:06,0 +01:57,3 +00:01,0 1 2
22 48 JOUINES Jean/CHABBERT Martin Ford Fiesta R2J R 2 10:10,0 +02:01,3 +00:04,0 4
23 57 CARTIER Victor/CRAEN Fabien Ford Fiesta R2J R 2 10:11,0 +02:02,3 +00:01,0 4
24 62 CHALAL Theo/LE FLOCH Franck Ford Fiesta R2J R 2 10:12,0 +02:03,3 +00:01,0 4
25 42 FRANCESCHI Jean-Baptiste/COURBON Romain Ford Fiesta R2J R 2 10:16,2 +02:07,5 +00:04,2 4
26 39 MASCLAUX Arnaud/MOULIN Alexandre Renault Clio Ragnotti F2 14 10:17,3 +02:08,6 +00:01,1 1 2
27 54 MARGAILLAN Hugo/POUJOL Sébastien Ford Fiesta R2J R 2 10:22,3 +02:13,6 +00:05,0 4
28 44 BOULENC Benjamin/DOS REIS Sébastien Ford Fiesta R2J R 2 10:26,5 +02:17,8 +00:04,2 4
29 24 MARTI Christian/LAVIALE Jean-Marc Mitsubishi Lancer Evo9 FN 4 10:26,8 +02:18,1 +00:00,3 1
30 43 DI FANTE Romain/TEMPIER Romain Ford Fiesta R2J R 2 10:27,6 +02:18,9 +00:00,8 4
31 53 GANDELLI David/BIAGETTI Loan Ford Fiesta R2J R 2 10:30,6 +02:21,9 +00:03,0 4
32 61 CORNU Alexandre/FASSOLA Thibault Ford Fiesta R2J R 2 10:31,0 +02:22,3 +00:00,4 4
33 27 PRIOLO Laurent/PRIOLO Cindy Mitsubishi Lancer Evo9 FN 4 10:31,3 +02:22,6 +00:00,3
34 49 GOUPIL Jocerand/CIANFARANI Anthoni Ford Fiesta R2J R 2 10:32,0 +02:23,3 +00:00,7 4
35 35 FRANCE Julien/MAZARGUIL Philippe Citroën DS3 R3 R 3 10:33,3 +02:24,6 +00:01,3
36 37 GUINCHARD Emmanuel/CHATELAIN Mickaël Peugeot 207 Rc R 3 10:34,9 +02:26,2 +00:01,6
37 47 CHANTRIAUX Audric/PEREZ Laëtitia Ford Fiesta R2J R 2 10:36,3 +02:27,6 +00:01,4 4
38 66 CACHOD Sylvain/POURCELOT Aurélien Citroën C2 R2 R 2 10:38,2 +02:29,5 +00:01,9
39 38 JULIA David/AUBERTIN Ludovic Peugeot 206 Rc F2 14 10:40,9 +02:32,2 +00:02,7 1 2
40 65 FRANCESCHI Mathieu/BELHACENE Matthieu Citroën C2 R2 R 2 10:43,8 +02:35,1 +00:02,9
41 41 SABATIER Florent/SANTIAGO Thomas Peugeot 106 S16 FA 6 10:45,5 +02:36,8 +00:01,7 1 2
42 32 JOUINES Rémi/MAHEO Arnaud Peugeot 207 Rc R 3 10:46,5 +02:37,8 +00:01,0 1 2
43 51 MOUSTIN Doriann/DESNOYER Alexia Ford Fiesta R2J R 2 10:48,6 +02:39,9 +00:02,1 4
44 40 VITAL Jean-Pierre/YVERNAULT Eric Citroën Saxo VTS F2 13 10:48,9 +02:40,2 +00:00,3 1 2
45 63 MOLLARD Alexandre/EYMIN Nicolas Peugeot 208 VTI R 2 10:54,5 +02:45,8 +00:05,6
46 75 LAGIER Fabrice/DUPONT Romuald Peugeot 306 S16 FA 7 10:56,8 +02:48,1 +00:02,3
47 55 PONTAL Julien/BARRAL Florian Ford Fiesta R2J R 2 10:57,3 +02:48,6 +00:00,5 4
48 29 DAZY Jean-Pierre/LOIZEAUX Didier Renault Clio R3 R 3 10:57,4 +02:48,7 +00:00,1 1 2
49 64 GUIBERT Jean-Christophe/GRACIAL Laurent Ford Fiesta R2 R 2 10:57,9 +02:49,2 +00:00,5
50 52 GIUSTI Igor/DINI Gilbert Ford Fiesta R2J R 2 10:58,8 +02:50,1 +00:00,9 4
51 50 CURIOZ Benjamin/BEERENS Pierre Ford Fiesta R2J R 2 10:59,7 +02:51,0 +00:00,9 4
52 69 QUARROZ Damien/VOLPI Cécile Citroën Saxo T4 FA 6K 11:13,3 +03:04,6 +00:13,6
53 33 BOUCHET Guillaume/BLAMPEY Fabien Peugeot 207 Rc R 3 11:13,3 +03:04,6
54 85 GERMAIN Alex/POIROT Edgard Peugeot 205 GTI F2 13 11:13,8 +03:05,1 +00:00,5
55 60 EMANUEL Maxence/DALMASSO Pauline Ford Fiesta R2J R 2 11:20,9 +03:12,2 +00:07,1 4
56 90 BERTHOD Loïc/JOSSERAND Alexis Citroën Saxo VTS FN 2 11:21,5 +03:12,8 +00:00,6
57 74 TATIN Xavier/BAUMET Eddie Peugeot 306 S16 FA 7 11:27,9 +03:19,2 +00:06,4
58 88 BRISSON Eddy/MASSON Pascal Suzuki Swift Sport FN 2 11:31,8 +03:23,1 +00:03,9
59 68 PAILLER Julien/HENQUINET Sébastien Citroën Saxo T4 FA 6K 11:33,8 +03:25,1 +00:02,0
60 36 SPART Patrick/CATTIN Charline Peugeot 207 Rc R 3 11:33,8 +03:25,1
61 56 VIAROUGE David/BENZAL Aurélien Ford Fiesta R2J R 2 11:35,8 +03:27,1 +00:02,0 4
62 94 VUITTENEZ Victorien/COTE COLISSON Maxime Peugeot 106 XSI FN 1 11:35,9 +03:27,2 +00:00,1
63 84 FOURNIER Nicolas/VATTEAU Kévin Peugeot 206 XS F2 13 11:41,4 +03:32,7 +00:05,5 1 2
64 71 COLOMBE Geoffroy/FABREGUE Régis Peugeot 206 XS FA 6K 11:45,5 +03:36,8 +00:04,1
65 73 SOUFFEZ Frédéric/PRUVOST Astrid Peugeot 206 Rc FA 7 11:49,5 +03:40,8 +00:04,0 1 2
66 82 DUCLAUX Julien/AMALBERTI Cédric Peugeot 206 Rc FN 3 11:58,2 +03:49,5 +00:08,7
67 58 VIANO Allison/CHOL Cecilia Ford Fiesta R2J R 2 12:01,1 +03:52,4 +00:02,9 4
68 78 RAYNAUD Gabriel/JULIEN William Seat Ibiza GTI F2 14 12:06,9 +03:58,2 +00:05,8 1 2
69 22 GLEY Jean-Pierre/JEUDY Nicolas B.M.W. 325 iX FA 8 12:08,9 +04:00,2 +00:02,0
70 87 MOUGIN Jules/ROUMETTE Clemence Peugeot 106 Rallye FA 5 12:15,9 +04:07,2 +00:07,0
71 70 BRENIAUX Sébastien/JACQUES Anthony Peugeot 206 XS FA 6K 12:27,9 +04:19,2 +00:12,0
72 81 VIDAL Marc/MONTARON Loïc Peugeot 309 GTI 16S F2 14 12:47,4 +04:38,7 +00:19,5
73 80 REYNAUD Yvan/SCHWARTZ Eric Opel Manta GTE F2 14 12:50,3 +04:41,6 +00:02,9
74 77 STUDER Maude/STUDER Sébastien Peugeot 206 GT FA 7 12:51,6 +04:42,9 +00:01,3
75 95 FAUR Yoann/MASSON Kévin Peugeot 205 Rallye FN 1 13:07,5 +04:58,8 +00:15,9
76 79 CLEMENT Frédéric/COSTES François Peugeot 206 Rc F2 14 13:14,4 +05:05,7 +00:06,9 1 2
77 89 DOLGOPYATOFF Damien/PERRIN Christelle Suzuki Swift Sport FN 2 13:22,9 +05:14,2 +00:08,5
78 86 MAUVAIS Michel/PY Jean-Michel Peugeot 205 Rallye FA 5 13:41,3 +05:32,6 +00:18,4
79 72 FETY Fabrice/ROLLION Thomas Peugeot 206 XS FA 6K 14:09,5 +06:00,8 +00:28,2
80 91 DI PAOLO Alain/MORILLON Frederika Peugeot 106 S16 FN 2 14:10,6 +06:01,9 +00:01,1
81 92 FRANCOIS Léa/FRANCOIS Solene Peugeot 106 S16 FN 2 14:11,2 +06:02,5 +00:00,6
82 93 BRAQUET Jean-Baptiste/BRAQUET Elyse Peugeot 106 XSI FN 1 14:12,1 +06:03,4 +00:00,9
83 15 FALCO Jean-Marc/BOUERI Jonathan Mitsubishi Lancer Evo9 R 4 14:56,1 +06:47,4 +00:44,0 1
84 76 VERRY Vanessa/OUVRY Eleonore Peugeot 206 Rc FA 7 15:05,5 +06:56,8 +00:09,4
Clt Equipage Voiture Gr/Cl Temps Ecart 1er Ecart préc. Catégories
Commentaires: © PatricK Soft  
(Temps forfaitaires=couleur bleue)
Classés:84

Epreuve: Groupe: Catégorie:

 
Retour
Classement ES4-Aprey - Flagey (12.000 km)